createdAt,value
2018-10-17T00:01:03.723Z,16.53
2018-10-17T00:03:32.485Z,15.80
2018-10-17T00:06:01.163Z,15.83
2018-10-17T00:08:29.756Z,15.40
2018-10-17T00:10:58.483Z,16.70
2018-10-17T00:13:27.047Z,17.30
2018-10-17T00:15:55.623Z,15.30
2018-10-17T00:18:24.079Z,16.47
2018-10-17T00:20:52.540Z,16.83
2018-10-17T00:23:21.017Z,16.40
2018-10-17T00:25:49.533Z,15.70
2018-10-17T00:28:17.960Z,17.73
2018-10-17T00:30:46.505Z,17.10
2018-10-17T00:33:15.201Z,17.53
2018-10-17T00:35:43.726Z,16.77
2018-10-17T00:38:12.250Z,16.73
2018-10-17T00:40:40.698Z,17.20
2018-10-17T00:43:09.151Z,15.77
2018-10-17T00:45:37.578Z,16.30
2018-10-17T00:48:06.072Z,16.60
2018-10-17T00:50:34.551Z,16.20
2018-10-17T00:53:02.958Z,16.33
2018-10-17T00:55:31.363Z,17.00
2018-10-17T00:57:59.785Z,16.73
2018-10-17T01:00:28.299Z,17.17
2018-10-17T01:02:56.808Z,16.17
2018-10-17T01:05:25.272Z,16.30
2018-10-17T01:07:53.813Z,17.70
2018-10-17T01:10:22.290Z,17.17
2018-10-17T01:12:50.741Z,17.27
2018-10-17T01:15:19.221Z,15.63
2018-10-17T01:17:47.628Z,17.30
2018-10-17T01:20:16.125Z,17.40
2018-10-17T01:22:44.570Z,17.37
2018-10-17T01:25:13.062Z,16.60
2018-10-17T01:27:41.427Z,16.47
2018-10-17T01:30:09.838Z,16.10
2018-10-17T01:32:38.323Z,16.90
2018-10-17T01:35:07.389Z,16.13
2018-10-17T01:37:35.896Z,16.00
2018-10-17T01:40:04.447Z,16.97
2018-10-17T01:42:32.959Z,15.73
2018-10-17T01:45:01.379Z,16.10
2018-10-17T01:47:29.812Z,15.57
2018-10-17T01:49:58.324Z,16.23
2018-10-17T01:52:26.760Z,14.97
2018-10-17T01:54:55.265Z,15.83
2018-10-17T01:57:23.804Z,17.50
2018-10-17T01:59:52.287Z,15.33
2018-10-17T02:02:20.721Z,16.87
2018-10-17T02:04:49.190Z,15.70
2018-10-17T02:07:17.585Z,16.07
2018-10-17T02:09:46.000Z,16.60
2018-10-17T02:12:14.405Z,15.70
2018-10-17T02:14:42.756Z,16.23
2018-10-17T02:17:11.273Z,16.00
2018-10-17T02:19:39.622Z,16.57
2018-10-17T02:22:08.001Z,17.50
2018-10-17T02:24:36.405Z,16.87
2018-10-17T02:27:04.897Z,18.73
2018-10-17T02:29:33.303Z,18.13
2018-10-17T02:32:01.716Z,17.00
2018-10-17T02:34:30.110Z,16.80
2018-10-17T02:36:58.553Z,17.63
2018-10-17T02:39:26.980Z,18.10
2018-10-17T02:41:55.403Z,17.53
2018-10-17T02:44:23.810Z,17.67
2018-10-17T02:46:52.244Z,17.10
2018-10-17T02:49:27.384Z,16.13
2018-10-17T02:51:55.840Z,17.60
2018-10-17T02:54:24.220Z,16.63
2018-10-17T02:56:52.621Z,16.20
2018-10-17T02:59:21.950Z,17.20
2018-10-17T03:01:50.432Z,18.10
2018-10-17T03:04:18.876Z,19.03
2018-10-17T03:06:47.296Z,17.30
2018-10-17T03:09:15.723Z,17.27
2018-10-17T03:11:44.197Z,17.00
2018-10-17T03:14:12.677Z,18.47
2018-10-17T03:16:41.370Z,15.60
2018-10-17T03:19:09.981Z,16.83
2018-10-17T03:21:38.598Z,14.70
2018-10-17T03:24:07.209Z,15.77
2018-10-17T03:26:35.912Z,16.53
2018-10-17T03:29:04.515Z,14.40
2018-10-17T03:31:33.081Z,15.83
2018-10-17T03:34:01.669Z,16.43
2018-10-17T03:36:30.160Z,15.30
2018-10-17T03:38:58.708Z,15.13
2018-10-17T03:41:27.284Z,14.30
2018-10-17T03:43:55.859Z,14.43
2018-10-17T03:46:24.425Z,15.03
2018-10-17T03:48:53.024Z,13.90
2018-10-17T03:51:21.695Z,14.50
2018-10-17T03:53:50.156Z,14.20
2018-10-17T03:56:18.649Z,15.30
2018-10-17T03:58:47.261Z,14.70
2018-10-17T04:01:15.769Z,16.20
2018-10-17T04:03:44.148Z,15.10
2018-10-17T04:06:12.659Z,15.87
2018-10-17T04:08:41.114Z,15.60
2018-10-17T04:11:09.624Z,15.03
2018-10-17T04:13:37.988Z,15.90
2018-10-17T04:16:06.380Z,15.93
2018-10-17T04:18:34.831Z,15.33
2018-10-17T04:21:03.228Z,15.53
2018-10-17T04:23:31.656Z,15.37
2018-10-17T04:26:00.048Z,15.10
2018-10-17T04:28:28.579Z,17.40
2018-10-17T04:30:57.008Z,16.07
2018-10-17T04:33:25.465Z,16.80
2018-10-17T04:35:53.901Z,15.17
2018-10-17T04:38:22.472Z,16.33
2018-10-17T04:40:50.884Z,16.70
2018-10-17T04:43:19.562Z,16.77
2018-10-17T04:45:47.887Z,17.73
2018-10-17T04:48:16.360Z,18.27
2018-10-17T04:50:44.744Z,15.93
2018-10-17T04:53:13.213Z,17.30
2018-10-17T04:55:41.723Z,17.17
2018-10-17T04:58:10.176Z,16.20
2018-10-17T05:00:38.692Z,15.67
2018-10-17T05:03:07.153Z,16.10
2018-10-17T05:05:35.633Z,16.63
2018-10-17T05:08:04.088Z,15.43
2018-10-17T05:10:32.584Z,17.00
2018-10-17T05:13:01.175Z,15.80
2018-10-17T05:15:29.667Z,16.47
2018-10-17T05:17:58.153Z,14.63
2018-10-17T05:20:26.841Z,17.00
2018-10-17T05:22:55.377Z,18.40
2018-10-17T05:25:23.724Z,17.90
2018-10-17T05:27:52.168Z,18.97
2018-10-17T05:30:20.563Z,18.83
2018-10-17T05:32:49.075Z,17.20
2018-10-17T05:35:17.537Z,17.03
2018-10-17T05:37:46.135Z,17.77
2018-10-17T05:40:14.502Z,17.03
2018-10-17T05:42:42.984Z,20.93
2018-10-17T05:45:11.424Z,20.57
2018-10-17T05:47:40.217Z,19.20
2018-10-17T05:50:08.703Z,19.60
2018-10-17T05:52:37.160Z,17.37
2018-10-17T05:55:06.090Z,19.97
2018-10-17T05:57:34.460Z,19.80
2018-10-17T06:00:02.862Z,20.90
2018-10-17T06:02:34.097Z,19.40
2018-10-17T06:05:02.569Z,19.13
2018-10-17T06:07:30.949Z,20.10
2018-10-17T06:09:59.756Z,20.53
2018-10-17T06:12:28.196Z,19.70
2018-10-17T06:14:56.664Z,19.80
2018-10-17T06:17:25.112Z,18.50
2018-10-17T06:19:53.707Z,19.20
2018-10-17T06:22:22.175Z,19.83
2018-10-17T06:24:50.750Z,19.20
2018-10-17T06:27:19.144Z,18.87
2018-10-17T06:29:47.674Z,19.80
2018-10-17T06:32:16.136Z,19.33
2018-10-17T06:34:44.807Z,18.40
2018-10-17T06:37:13.309Z,19.43
2018-10-17T06:39:41.712Z,19.13
2018-10-17T06:42:10.250Z,20.40
2018-10-17T06:44:38.731Z,18.00
2018-10-17T06:47:07.404Z,18.10
2018-10-17T06:49:35.943Z,19.40
2018-10-17T06:52:04.368Z,17.90
2018-10-17T06:54:33.096Z,18.13
2018-10-17T06:57:01.521Z,15.73
2018-10-17T06:59:30.061Z,17.10
2018-10-17T07:01:59.142Z,17.53
2018-10-17T07:04:27.575Z,17.60
2018-10-17T07:06:56.153Z,16.37
2018-10-17T07:09:24.761Z,16.20
2018-10-17T07:11:53.252Z,16.60
2018-10-17T07:14:22.417Z,16.57
2018-10-17T07:16:51.006Z,15.33
2018-10-17T07:19:19.448Z,17.17
2018-10-17T07:21:47.903Z,15.50
2018-10-17T07:27:19.732Z,15.83
2018-10-17T07:29:48.239Z,15.57
2018-10-17T07:32:16.782Z,15.43
2018-10-17T07:34:45.265Z,17.43
2018-10-17T07:37:13.749Z,15.80
2018-10-17T07:39:42.361Z,16.33
2018-10-17T07:42:10.883Z,15.33
2018-10-17T07:44:39.395Z,15.43
2018-10-17T07:47:07.868Z,14.37
2018-10-17T07:49:36.432Z,15.53
2018-10-17T07:52:05.552Z,15.10
2018-10-17T07:54:34.016Z,14.37
2018-10-17T07:57:02.461Z,13.07
2018-10-17T07:59:30.959Z,14.63
2018-10-17T08:01:59.357Z,13.77
2018-10-17T08:04:27.788Z,14.30
2018-10-17T08:06:56.280Z,12.40
2018-10-17T08:09:24.719Z,12.80
2018-10-17T08:11:53.212Z,13.33
2018-10-17T08:14:21.641Z,12.00
2018-10-17T08:16:50.970Z,12.30
2018-10-17T08:19:19.499Z,11.10
2018-10-17T08:21:47.958Z,11.57
2018-10-17T08:24:16.477Z,13.00
2018-10-17T08:26:44.907Z,11.70
2018-10-17T08:29:13.683Z,11.73
2018-10-17T08:31:42.205Z,11.83
2018-10-17T08:34:10.659Z,11.47
2018-10-17T08:36:39.392Z,12.10
2018-10-17T08:39:09.072Z,12.53
2018-10-17T08:41:37.545Z,11.20
2018-10-17T08:44:06.042Z,11.63
2018-10-17T08:46:34.528Z,12.80
2018-10-17T08:49:02.956Z,11.00
2018-10-17T08:51:31.405Z,11.30
2018-10-17T08:53:59.880Z,11.20
2018-10-17T08:56:28.353Z,11.40
2018-10-17T08:58:56.875Z,11.97
2018-10-17T09:01:25.341Z,11.83
2018-10-17T09:03:53.847Z,11.80
2018-10-17T09:06:22.287Z,12.20
2018-10-17T09:08:50.825Z,12.10
2018-10-17T09:11:19.578Z,12.70
2018-10-17T09:13:48.035Z,11.17
2018-10-17T09:16:16.599Z,12.73
2018-10-17T09:18:44.950Z,12.20
2018-10-17T09:21:13.654Z,11.53
2018-10-17T09:23:42.017Z,11.10
2018-10-17T09:26:10.480Z,10.73
2018-10-17T09:28:38.908Z,13.23
2018-10-17T09:31:07.428Z,12.27
2018-10-17T09:33:35.860Z,14.10
2018-10-17T09:36:04.510Z,15.73
2018-10-17T09:38:33.009Z,16.40
2018-10-17T09:41:01.471Z,17.33
2018-10-17T09:43:29.941Z,17.00
2018-10-17T09:45:58.473Z,16.60
2018-10-17T09:48:26.864Z,14.43
2018-10-17T09:50:55.940Z,17.17
2018-10-17T09:53:24.404Z,15.10
2018-10-17T09:55:52.833Z,16.10
2018-10-17T09:58:21.256Z,14.00
2018-10-17T10:00:54.972Z,16.00
2018-10-17T10:03:23.399Z,16.80
2018-10-17T10:05:51.866Z,17.57
2018-10-17T10:08:20.292Z,17.57
2018-10-17T10:10:48.818Z,18.10
2018-10-17T10:13:17.213Z,20.00
2018-10-17T10:15:45.697Z,21.10
2018-10-17T10:18:14.160Z,22.20
2018-10-17T10:20:42.624Z,23.50
2018-10-17T10:23:11.160Z,23.50
2018-10-17T10:25:39.545Z,26.17
2018-10-17T10:28:08.062Z,24.67
2018-10-17T10:30:36.552Z,24.47
2018-10-17T10:33:05.791Z,23.43
2018-10-17T10:35:34.220Z,23.30
2018-10-17T10:38:02.695Z,24.23
2018-10-17T10:40:31.203Z,22.20
2018-10-17T10:42:59.628Z,22.70
2018-10-17T10:45:28.083Z,24.10
2018-10-17T10:47:56.595Z,24.03
2018-10-17T10:50:25.045Z,22.47
2018-10-17T10:52:53.654Z,22.70
2018-10-17T10:55:22.013Z,24.13
2018-10-17T10:57:50.504Z,23.20
2018-10-17T11:00:19.020Z,23.30
2018-10-17T11:02:47.385Z,24.80
2018-10-17T11:05:15.920Z,23.00
2018-10-17T11:07:44.335Z,23.37
2018-10-17T11:10:12.769Z,22.07
2018-10-17T11:12:41.229Z,22.90
2018-10-17T11:15:10.077Z,22.50
2018-10-17T11:17:38.472Z,23.07
2018-10-17T11:20:07.811Z,21.30
2018-10-17T11:22:36.292Z,22.10
2018-10-17T11:25:05.305Z,21.97
2018-10-17T11:27:34.048Z,21.80
2018-10-17T11:30:02.516Z,21.17
2018-10-17T11:32:31.085Z,20.80
2018-10-17T11:34:59.836Z,21.07
2018-10-17T11:37:28.620Z,21.60
2018-10-17T11:39:57.133Z,20.27
2018-10-17T11:42:25.675Z,19.37
2018-10-17T11:44:54.123Z,21.50
2018-10-17T11:47:22.578Z,21.87
2018-10-17T11:49:51.036Z,21.13
2018-10-17T11:52:19.500Z,20.00
2018-10-17T11:54:47.917Z,20.00
2018-10-17T11:57:16.427Z,19.20
2018-10-17T11:59:47.982Z,21.57
2018-10-17T12:02:16.409Z,20.97
2018-10-17T12:04:45.080Z,21.10
2018-10-17T12:07:13.344Z,18.77
2018-10-17T12:09:41.996Z,20.03
2018-10-17T12:12:10.644Z,20.10
2018-10-17T12:14:39.135Z,19.80
2018-10-17T12:17:07.720Z,19.50
2018-10-17T12:19:36.228Z,18.53
2018-10-17T12:22:04.712Z,19.67
2018-10-17T12:24:33.368Z,20.37
2018-10-17T12:27:01.939Z,21.40
2018-10-17T12:29:30.341Z,20.50
2018-10-17T12:31:58.793Z,22.20
2018-10-17T12:34:27.253Z,21.90
2018-10-17T12:36:55.691Z,19.80
2018-10-17T12:39:24.168Z,20.33
2018-10-17T12:41:52.596Z,20.90
2018-10-17T12:44:21.163Z,22.67
2018-10-17T12:46:49.462Z,22.10
2018-10-17T12:49:17.893Z,22.97
2018-10-17T12:51:46.307Z,22.43
2018-10-17T12:54:14.732Z,19.80
2018-10-17T12:56:43.172Z,21.93
2018-10-17T12:59:11.688Z,22.40
2018-10-17T13:01:40.076Z,22.20
2018-10-17T13:04:08.500Z,21.00
2018-10-17T13:06:36.913Z,22.37
2018-10-17T13:09:08.670Z,22.27
2018-10-17T13:11:37.201Z,20.87
2018-10-17T13:14:05.674Z,21.50
2018-10-17T13:16:34.336Z,21.70
2018-10-17T13:19:02.818Z,20.87
2018-10-17T13:21:31.306Z,20.60
2018-10-17T13:24:00.105Z,21.90
2018-10-17T13:26:28.531Z,20.43
2018-10-17T13:28:57.078Z,20.27
2018-10-17T13:31:25.490Z,19.00
2018-10-17T13:33:53.916Z,20.40
2018-10-17T13:36:22.344Z,20.30
2018-10-17T13:38:50.782Z,22.93
2018-10-17T13:41:19.261Z,19.67
2018-10-17T13:43:47.664Z,19.30
2018-10-17T13:46:16.084Z,20.27
2018-10-17T13:48:44.536Z,19.20
2018-10-17T13:51:13.012Z,21.17
2018-10-17T13:53:41.448Z,20.13
2018-10-17T13:56:09.873Z,17.67
2018-10-17T13:58:38.340Z,20.73
2018-10-17T14:01:06.858Z,21.10
2018-10-17T14:03:35.228Z,20.43
2018-10-17T14:06:03.686Z,21.13
2018-10-17T14:08:32.092Z,21.97
2018-10-17T14:11:00.521Z,21.00
2018-10-17T14:13:29.033Z,21.90
2018-10-17T14:15:57.413Z,20.93
2018-10-17T14:18:25.844Z,20.87
2018-10-17T14:20:54.331Z,21.47
2018-10-17T14:23:22.743Z,23.50
2018-10-17T14:25:51.152Z,21.53
2018-10-17T14:28:19.572Z,21.73
2018-10-17T14:30:48.024Z,20.57
2018-10-17T14:33:16.600Z,22.67
2018-10-17T14:35:44.976Z,23.07
2018-10-17T14:38:13.416Z,19.30
2018-10-17T14:40:41.907Z,23.27
2018-10-17T14:43:10.282Z,22.83
2018-10-17T14:45:38.732Z,21.53
2018-10-17T14:48:07.351Z,21.50
2018-10-17T14:50:35.765Z,19.87
2018-10-17T14:53:04.264Z,18.73
2018-10-17T14:55:32.680Z,20.37
2018-10-17T14:58:01.208Z,21.07
2018-10-17T15:00:29.674Z,20.33
2018-10-17T15:02:58.108Z,21.80
2018-10-17T15:05:26.529Z,23.43
2018-10-17T15:07:54.938Z,21.10
2018-10-17T15:10:23.428Z,25.90
2018-10-17T15:12:51.924Z,22.33
2018-10-17T15:15:20.488Z,27.27
2018-10-17T15:17:48.879Z,23.47
2018-10-17T15:20:17.311Z,28.30
2018-10-17T15:22:45.748Z,27.27
2018-10-17T15:25:14.208Z,26.57
2018-10-17T15:27:42.608Z,27.00
2018-10-17T15:30:11.156Z,26.97
2018-10-17T15:32:39.496Z,23.63
2018-10-17T15:35:08.484Z,26.70
2018-10-17T15:37:36.957Z,25.13
2018-10-17T15:40:05.594Z,25.17
2018-10-17T15:42:34.056Z,24.83
2018-10-17T15:45:02.557Z,24.30
2018-10-17T15:47:30.958Z,26.00
2018-10-17T15:49:59.417Z,27.77
2018-10-17T15:52:27.843Z,28.00
2018-10-17T15:54:56.309Z,27.70
2018-10-17T15:57:24.739Z,28.40
2018-10-17T15:59:53.250Z,28.77
2018-10-17T16:02:21.704Z,31.67
2018-10-17T16:04:50.094Z,30.63
2018-10-17T16:07:18.555Z,31.83
2018-10-17T16:09:46.985Z,30.60
2018-10-17T16:12:15.486Z,32.83
2018-10-17T16:14:44.023Z,31.20
2018-10-17T16:17:12.550Z,32.23
2018-10-17T16:19:40.948Z,31.80
2018-10-17T16:22:09.432Z,31.47
2018-10-17T16:24:37.864Z,31.97
2018-10-17T16:27:06.443Z,30.47
2018-10-17T16:29:34.964Z,31.37
2018-10-17T16:32:03.509Z,32.60
2018-10-17T16:34:31.916Z,31.93
2018-10-17T16:37:00.389Z,32.93
2018-10-17T16:39:28.844Z,35.47
2018-10-17T16:41:57.365Z,34.60
2018-10-17T16:44:25.767Z,35.17
2018-10-17T16:46:54.276Z,34.40
2018-10-17T16:49:22.827Z,36.40
2018-10-17T16:51:51.280Z,38.17
2018-10-17T16:54:19.757Z,37.50
2018-10-17T16:56:48.200Z,35.53
2018-10-17T16:59:16.647Z,38.03
2018-10-17T17:01:45.113Z,35.87
2018-10-17T17:04:13.604Z,39.90
2018-10-17T17:06:42.104Z,38.00
2018-10-17T17:09:11.492Z,38.40
2018-10-17T17:11:39.980Z,40.80
2018-10-17T17:14:08.548Z,38.80
2018-10-17T17:16:36.993Z,40.53
2018-10-17T17:19:05.568Z,39.37
2018-10-17T17:21:34.141Z,38.87
2018-10-17T17:24:02.719Z,38.63
2018-10-17T17:26:31.154Z,39.10
2018-10-17T17:28:59.575Z,41.83
2018-10-17T17:31:28.029Z,42.90
2018-10-17T17:33:56.469Z,39.07
2018-10-17T17:36:24.972Z,38.77
2018-10-17T17:38:53.645Z,41.93
2018-10-17T17:41:22.169Z,40.73
2018-10-17T17:43:50.620Z,40.97
2018-10-17T17:46:19.088Z,41.00
2018-10-17T17:48:47.534Z,39.70
2018-10-17T17:51:16.197Z,41.50
2018-10-17T17:53:44.644Z,45.37
2018-10-17T17:56:13.140Z,43.80
2018-10-17T17:58:41.669Z,45.20
2018-10-17T18:01:10.084Z,44.60
2018-10-17T18:03:38.516Z,43.20
2018-10-17T18:06:06.964Z,42.17
2018-10-17T18:08:35.443Z,43.70
2018-10-17T18:11:25.354Z,41.63
2018-10-17T18:13:55.049Z,41.00
2018-10-17T18:16:23.532Z,44.30
2018-10-17T18:18:51.972Z,41.10
2018-10-17T18:21:20.399Z,43.60
2018-10-17T18:23:48.869Z,41.63
2018-10-17T18:26:17.367Z,41.20
2018-10-17T18:28:45.832Z,40.90
2018-10-17T18:31:14.290Z,43.73
2018-10-17T18:33:42.780Z,41.10
2018-10-17T18:36:11.224Z,42.17
2018-10-17T18:38:39.707Z,42.70
2018-10-17T18:41:08.177Z,41.20
2018-10-17T18:43:36.644Z,40.63
2018-10-17T18:46:05.380Z,41.70
2018-10-17T18:48:33.836Z,41.70
2018-10-17T18:51:02.339Z,38.90
2018-10-17T18:53:31.105Z,40.00
2018-10-17T18:55:59.678Z,41.93
2018-10-17T18:58:28.162Z,40.53
2018-10-17T19:00:56.623Z,39.47
2018-10-17T19:03:25.093Z,39.53
2018-10-17T19:05:53.596Z,38.20
2018-10-17T19:08:22.176Z,38.87
2018-10-17T19:10:50.542Z,38.30
2018-10-17T19:13:19.020Z,38.17
2018-10-17T19:15:47.547Z,39.60
2018-10-17T19:18:15.987Z,38.47
2018-10-17T19:20:44.432Z,37.17
2018-10-17T19:23:12.916Z,38.53
2018-10-17T19:25:41.368Z,39.37
2018-10-17T19:28:09.828Z,37.30
2018-10-17T19:30:38.268Z,36.83
2018-10-17T19:33:06.786Z,39.93
2018-10-17T19:35:35.364Z,38.37
2018-10-17T19:38:03.933Z,40.43
2018-10-17T19:40:32.384Z,39.23
2018-10-17T19:43:01.035Z,38.37
2018-10-17T19:45:29.489Z,40.70
2018-10-17T19:47:57.966Z,42.07
2018-10-17T19:50:26.390Z,40.50
2018-10-17T19:52:54.860Z,40.50
2018-10-17T19:55:23.365Z,39.87
2018-10-17T19:57:51.845Z,40.90
2018-10-17T20:00:20.340Z,40.33
2018-10-17T20:02:48.808Z,41.27
2018-10-17T20:05:17.332Z,40.73
2018-10-17T20:07:45.876Z,42.60
2018-10-17T20:10:14.283Z,42.77
2018-10-17T20:12:42.784Z,41.10
2018-10-17T20:15:11.300Z,41.70
2018-10-17T20:17:39.757Z,40.20
2018-10-17T20:20:08.230Z,38.67
2018-10-17T20:22:36.673Z,40.10
2018-10-17T20:25:05.877Z,38.43
2018-10-17T20:27:34.284Z,39.90
2018-10-17T20:30:02.751Z,41.00
2018-10-17T20:32:31.235Z,40.40
2018-10-17T20:34:59.794Z,37.20
2018-10-17T20:37:28.190Z,39.03
2018-10-17T20:39:56.658Z,37.67
2018-10-17T20:42:25.138Z,39.20
2018-10-17T20:44:53.584Z,38.33
2018-10-17T20:47:22.009Z,38.50
2018-10-17T20:49:50.468Z,37.60
2018-10-17T20:52:19.015Z,36.20
2018-10-17T20:54:47.433Z,38.50
2018-10-17T20:57:15.895Z,41.03
2018-10-17T20:59:44.372Z,37.90
2018-10-17T21:02:12.932Z,35.83
2018-10-17T21:04:41.316Z,38.67
2018-10-17T21:07:09.808Z,37.10
2018-10-17T21:09:38.302Z,38.93
2018-10-17T21:12:06.708Z,37.10
2018-10-17T21:14:35.169Z,49.03
2018-10-17T21:17:03.605Z,40.80
2018-10-17T21:19:32.066Z,39.50
2018-10-17T21:22:00.529Z,45.40
2018-10-17T21:24:28.980Z,49.40
2018-10-17T21:26:57.546Z,47.90
2018-10-17T21:29:25.890Z,45.53
2018-10-17T21:31:54.332Z,45.53
2018-10-17T21:34:22.799Z,49.77
2018-10-17T21:36:51.335Z,44.10
2018-10-17T21:39:19.784Z,43.00
2018-10-17T21:41:48.196Z,44.73
2018-10-17T21:44:16.642Z,44.40
2018-10-17T21:46:45.045Z,46.27
2018-10-17T21:49:13.467Z,41.97
2018-10-17T21:51:42.025Z,45.10
2018-10-17T21:54:10.446Z,46.63
2018-10-17T21:56:38.848Z,45.63
2018-10-17T21:59:07.584Z,47.73
2018-10-17T22:01:35.995Z,47.83
2018-10-17T22:04:04.481Z,49.73
2018-10-17T22:06:32.896Z,49.70
2018-10-17T22:09:01.512Z,47.00
2018-10-17T22:11:29.941Z,47.23
2018-10-17T22:13:58.414Z,51.80
2018-10-17T22:17:29.803Z,53.73
2018-10-17T22:19:58.463Z,50.03
2018-10-17T22:22:27.192Z,43.00
2018-10-17T22:24:56.311Z,53.10
2018-10-17T22:27:24.759Z,47.87
2018-10-17T22:29:53.447Z,47.77
2018-10-17T22:32:21.818Z,46.10
2018-10-17T22:34:50.268Z,52.90
2018-10-17T22:37:18.706Z,49.90
2018-10-17T22:39:47.144Z,48.37
2018-10-17T22:42:15.553Z,48.83
2018-10-17T22:44:44.061Z,49.03
2018-10-17T22:47:12.504Z,49.13
2018-10-17T22:49:40.939Z,47.40
2018-10-17T22:52:09.339Z,49.47
2018-10-17T22:54:37.755Z,50.37
2018-10-17T22:57:06.812Z,52.13
2018-10-17T22:59:35.232Z,47.07
2018-10-17T23:02:03.907Z,50.07
2018-10-17T23:04:32.411Z,48.00
2018-10-17T23:07:00.872Z,48.93
2018-10-17T23:09:29.284Z,50.10
2018-10-17T23:11:57.725Z,50.73
2018-10-17T23:14:26.145Z,48.93
2018-10-17T23:16:54.575Z,46.53
2018-10-17T23:19:22.999Z,47.90
2018-10-17T23:21:51.460Z,45.83
2018-10-17T23:24:20.000Z,47.00
2018-10-17T23:26:48.472Z,43.70
2018-10-17T23:29:16.913Z,43.30
2018-10-17T23:31:45.371Z,46.60
2018-10-17T23:34:13.808Z,47.53
2018-10-17T23:36:42.259Z,43.87
2018-10-17T23:39:10.826Z,45.53
2018-10-17T23:41:40.164Z,43.20
2018-10-17T23:44:08.676Z,39.97
2018-10-17T23:46:37.124Z,47.00
2018-10-17T23:49:05.618Z,46.07
2018-10-17T23:51:34.096Z,43.90
2018-10-17T23:54:02.591Z,44.30
2018-10-17T23:56:31.012Z,41.57
2018-10-17T23:58:59.440Z,45.50
